createdAt,value
2018-07-25T00:00:23.668Z,94168.05
2018-07-25T00:02:52.659Z,94166.67
2018-07-25T00:05:22.077Z,94164.33
2018-07-25T00:07:51.194Z,94165.05
2018-07-25T00:10:20.303Z,94152.87
2018-07-25T00:12:50.186Z,94150.30
2018-07-25T00:15:18.990Z,94156.40
2018-07-25T00:17:47.867Z,94148.50
2018-07-25T00:20:17.138Z,94152.34
2018-07-25T00:22:46.767Z,94155.53
2018-07-25T00:25:16.093Z,94151.78
2018-07-25T00:27:44.952Z,94160.55
2018-07-25T00:30:13.731Z,94156.70
2018-07-25T00:32:42.759Z,94161.44
2018-07-25T00:35:11.528Z,94157.27
2018-07-25T00:37:40.436Z,94158.69
2018-07-25T00:40:09.582Z,94164.86
2018-07-25T00:42:38.727Z,94163.69
2018-07-25T00:45:08.334Z,94169.37
2018-07-25T00:47:37.498Z,94161.77
2018-07-25T00:50:06.606Z,94166.17
2018-07-25T00:52:36.008Z,94160.11
2018-07-25T00:55:05.319Z,94161.49
2018-07-25T00:57:34.159Z,94160.55
2018-07-25T01:00:03.254Z,94156.46
2018-07-25T01:02:33.574Z,94152.51
2018-07-25T01:05:02.206Z,94147.22
2018-07-25T01:07:31.694Z,94150.56
2018-07-25T01:10:01.032Z,94159.97
2018-07-25T01:12:30.132Z,94162.83
2018-07-25T01:14:59.328Z,94158.47
2018-07-25T01:17:28.787Z,94161.36
2018-07-25T01:19:57.792Z,94156.40
2018-07-25T01:22:26.666Z,94162.58
2018-07-25T01:24:55.847Z,94162.80
2018-07-25T01:27:24.696Z,94159.30
2018-07-25T01:29:54.020Z,94155.20
2018-07-25T01:32:23.231Z,94154.14
2018-07-25T01:34:53.567Z,94162.19
2018-07-25T01:37:22.187Z,94156.92
2018-07-25T01:39:51.415Z,94152.75
2018-07-25T01:42:20.203Z,94158.12
2018-07-25T01:44:49.820Z,94153.84
2018-07-25T01:47:19.090Z,94154.32
2018-07-25T01:49:47.935Z,94153.56
2018-07-25T01:52:16.905Z,94151.64
2018-07-25T01:54:47.408Z,94153.15
2018-07-25T01:57:16.503Z,94154.81
2018-07-25T01:59:45.462Z,94160.10
2018-07-25T02:02:14.934Z,94161.82
2018-07-25T02:04:43.936Z,94161.54
2018-07-25T02:07:13.019Z,94160.25
2018-07-25T02:09:43.270Z,94162.08
2018-07-25T02:12:12.259Z,94164.11
2018-07-25T02:14:41.018Z,94141.47
2018-07-25T02:17:10.246Z,94163.16
2018-07-25T02:19:39.437Z,94166.06
2018-07-25T02:22:08.428Z,94165.95
2018-07-25T02:24:37.214Z,94165.08
2018-07-25T02:27:06.965Z,94164.44
2018-07-25T02:29:36.442Z,94169.17
2018-07-25T02:32:05.580Z,94170.86
2018-07-25T02:34:34.604Z,94172.91
2018-07-25T02:37:03.653Z,94170.97
2018-07-25T02:39:32.619Z,94178.90
2018-07-25T02:42:01.611Z,94174.61
2018-07-25T02:44:31.103Z,94171.20
2018-07-25T02:46:59.913Z,94179.42
2018-07-25T02:49:29.094Z,94175.04
2018-07-25T02:51:58.223Z,94168.84
2018-07-25T02:54:27.199Z,94176.63
2018-07-25T02:56:56.113Z,94174.16
2018-07-25T02:59:25.323Z,94177.27
2018-07-25T03:01:54.128Z,94181.73
2018-07-25T03:04:22.990Z,94176.31
2018-07-25T03:06:52.205Z,94175.23
2018-07-25T03:09:21.263Z,94177.23
2018-07-25T03:11:50.434Z,94188.25
2018-07-25T03:14:19.757Z,94185.67
2018-07-25T03:16:48.839Z,94185.14
2018-07-25T03:19:17.503Z,94181.05
2018-07-25T03:21:46.878Z,94184.06
2018-07-25T03:24:15.743Z,94191.34
2018-07-25T03:26:44.479Z,94190.38
2018-07-25T03:29:13.310Z,94188.20
2018-07-25T03:31:42.033Z,94193.44
2018-07-25T03:34:11.076Z,94192.71
2018-07-25T03:36:39.951Z,94198.50
2018-07-25T03:39:09.135Z,94205.77
2018-07-25T03:41:38.430Z,94201.37
2018-07-25T03:44:07.360Z,94204.38
2018-07-25T03:46:36.111Z,94206.91
2018-07-25T03:49:06.029Z,94211.00
2018-07-25T03:51:35.451Z,94211.00
2018-07-25T03:54:04.348Z,94215.70
2018-07-25T03:56:34.187Z,94222.02
2018-07-25T03:59:03.059Z,94222.33
2018-07-25T04:01:32.007Z,94228.01
2018-07-25T04:04:01.265Z,94224.97
2018-07-25T04:06:30.027Z,94229.15
2018-07-25T04:08:58.926Z,94229.90
2018-07-25T04:11:27.630Z,94235.39
2018-07-25T04:13:56.490Z,94234.94
2018-07-25T04:16:25.295Z,94231.41
2018-07-25T04:18:54.140Z,94233.94
2018-07-25T04:21:23.289Z,94231.91
2018-07-25T04:23:52.774Z,94229.31
2018-07-25T04:26:21.927Z,94232.17
2018-07-25T04:28:51.051Z,94234.73
2018-07-25T04:31:20.294Z,94230.35
2018-07-25T04:33:51.007Z,94236.33
2018-07-25T04:36:19.912Z,94240.88
2018-07-25T04:38:48.699Z,94245.82
2018-07-25T04:41:17.928Z,94242.12
2018-07-25T04:43:47.031Z,94236.00
2018-07-25T04:46:16.174Z,94244.92
2018-07-25T04:48:45.388Z,94235.58
2018-07-25T04:51:14.181Z,94234.42
2018-07-25T04:53:43.288Z,94245.17
2018-07-25T04:56:12.960Z,94244.64
2018-07-25T04:58:41.785Z,94244.18
2018-07-25T05:01:10.941Z,94246.19
2018-07-25T05:03:40.991Z,94243.64
2018-07-25T05:06:10.104Z,94240.77
2018-07-25T05:08:39.066Z,94245.30
2018-07-25T05:11:08.505Z,94243.05
2018-07-25T05:13:37.464Z,94248.06
2018-07-25T05:16:07.312Z,94253.77
2018-07-25T05:18:36.728Z,94243.84
2018-07-25T05:21:05.791Z,94250.68
2018-07-25T05:23:34.713Z,94251.91
2018-07-25T05:26:04.066Z,94254.31
2018-07-25T05:28:32.940Z,94247.86
2018-07-25T05:31:01.878Z,94245.75
2018-07-25T05:33:31.397Z,94242.03
2018-07-25T05:36:00.389Z,94246.96
2018-07-25T05:38:29.076Z,94237.83
2018-07-25T05:40:58.574Z,94241.69
2018-07-25T05:43:27.765Z,94235.27
2018-07-25T05:45:56.971Z,94239.91
2018-07-25T05:48:26.271Z,94237.80
2018-07-25T05:50:55.181Z,94247.11
2018-07-25T05:53:24.052Z,94252.70
2018-07-25T05:55:53.075Z,94225.48
2018-07-25T05:58:22.227Z,94251.56
2018-07-25T06:00:51.436Z,94254.36
2018-07-25T06:03:20.436Z,94263.45
2018-07-25T06:05:49.572Z,94266.78
2018-07-25T06:08:19.091Z,94268.74
2018-07-25T06:10:48.422Z,94275.30
2018-07-25T06:13:17.516Z,94272.81
2018-07-25T06:15:46.527Z,94269.53
2018-07-25T06:18:15.843Z,94274.95
2018-07-25T06:20:45.949Z,94271.57
2018-07-25T06:23:15.241Z,94277.64
2018-07-25T06:25:44.342Z,94276.39
2018-07-25T06:28:13.553Z,94275.36
2018-07-25T06:30:42.442Z,94279.47
2018-07-25T06:33:11.438Z,94277.58
2018-07-25T06:35:40.433Z,94278.64
2018-07-25T06:38:09.639Z,94288.57
2018-07-25T06:40:38.728Z,94284.73
2018-07-25T06:43:07.724Z,94286.88
2018-07-25T06:45:37.158Z,94289.79
2018-07-25T06:48:06.947Z,94286.33
2018-07-25T06:50:36.208Z,94294.31
2018-07-25T06:53:05.326Z,94284.63
2018-07-25T06:55:34.141Z,94288.22
2018-07-25T06:58:03.822Z,94289.34
2018-07-25T07:00:33.194Z,94292.77
2018-07-25T07:03:02.255Z,94294.19
2018-07-25T07:05:31.160Z,94298.98
2018-07-25T07:08:00.611Z,94297.22
2018-07-25T07:10:29.429Z,94301.02
2018-07-25T07:12:58.617Z,94303.80
2018-07-25T07:15:27.987Z,94304.03
2018-07-25T07:17:57.246Z,94306.08
2018-07-25T07:20:26.362Z,94308.69
2018-07-25T07:22:55.815Z,94307.70
2018-07-25T07:25:24.584Z,94307.22
2018-07-25T07:27:53.576Z,94311.40
2018-07-25T07:30:23.158Z,94305.81
2018-07-25T07:32:52.573Z,94307.79
2018-07-25T07:35:21.760Z,94308.72
2018-07-25T07:37:50.993Z,94305.44
2018-07-25T07:40:22.025Z,94304.50
2018-07-25T07:42:51.630Z,94299.05
2018-07-25T07:45:20.947Z,94304.14
2018-07-25T07:47:50.124Z,94307.33
2018-07-25T07:50:19.727Z,94307.20
2018-07-25T07:52:48.721Z,94303.60
2018-07-25T07:55:18.524Z,94308.83
2018-07-25T07:57:47.480Z,94309.72
2018-07-25T08:00:17.397Z,94307.80
2018-07-25T08:02:47.559Z,94301.95
2018-07-25T08:05:17.604Z,94304.72
2018-07-25T08:07:46.770Z,94308.94
2018-07-25T08:10:15.774Z,94311.61
2018-07-25T08:12:44.898Z,94306.80
2018-07-25T08:15:13.978Z,94317.76
2018-07-25T08:17:42.974Z,94312.66
2018-07-25T08:20:12.424Z,94309.76
2018-07-25T08:22:41.908Z,94315.06
2018-07-25T08:25:10.959Z,94315.17
2018-07-25T08:27:40.074Z,94312.97
2018-07-25T08:30:09.017Z,94311.09
2018-07-25T08:32:38.090Z,94316.45
2018-07-25T08:35:07.022Z,94318.09
2018-07-25T08:37:36.456Z,94320.48
2018-07-25T08:40:06.582Z,94312.92
2018-07-25T08:42:35.874Z,94317.61
2018-07-25T08:45:06.312Z,94321.84
2018-07-25T08:47:35.180Z,94318.41
2018-07-25T08:50:05.394Z,94323.16
2018-07-25T08:52:34.417Z,94315.44
2018-07-25T08:55:03.388Z,94319.25
2018-07-25T08:57:32.944Z,94314.67
2018-07-25T09:00:02.091Z,94318.79
2018-07-25T09:02:31.500Z,94313.45
2018-07-25T09:05:00.938Z,94315.97
2018-07-25T09:07:29.856Z,94325.92
2018-07-25T09:09:59.104Z,94322.61
2018-07-25T09:12:28.275Z,94321.14
2018-07-25T09:14:56.943Z,94323.34
2018-07-25T09:17:25.786Z,94316.78
2018-07-25T09:19:55.160Z,94318.80
2018-07-25T09:22:25.102Z,94323.02
2018-07-25T09:24:54.207Z,94315.56
2018-07-25T09:27:23.939Z,94318.34
2018-07-25T09:29:52.797Z,94322.75
2018-07-25T09:32:22.207Z,94319.84
2018-07-25T09:34:52.040Z,94320.53
2018-07-25T09:37:21.481Z,94324.67
2018-07-25T09:39:55.370Z,94325.13
2018-07-25T09:42:26.260Z,94322.05
2018-07-25T09:44:56.134Z,94317.69
2018-07-25T09:47:25.296Z,94308.59
2018-07-25T09:49:54.276Z,94309.70
2018-07-25T09:52:23.886Z,94303.73
2018-07-25T09:54:52.621Z,94310.73
2018-07-25T09:57:21.678Z,94304.05
2018-07-25T09:59:50.827Z,94300.05
2018-07-25T10:02:19.688Z,94293.19
2018-07-25T10:04:48.644Z,94293.97
2018-07-25T10:07:18.142Z,94287.26
2018-07-25T10:09:46.843Z,94286.22
2018-07-25T10:12:15.769Z,94285.55
2018-07-25T10:14:45.167Z,94287.00
2018-07-25T10:17:14.658Z,94282.47
2018-07-25T10:19:43.358Z,94282.55
2018-07-25T10:22:12.699Z,94283.47
2018-07-25T10:24:41.807Z,94281.34
2018-07-25T10:27:10.835Z,94278.92
2018-07-25T10:29:39.991Z,94279.19
2018-07-25T10:32:09.156Z,94283.06
2018-07-25T10:34:38.419Z,94288.02
2018-07-25T10:37:07.431Z,94281.07
2018-07-25T10:39:36.306Z,94282.72
2018-07-25T10:42:05.934Z,94283.63
2018-07-25T10:44:35.136Z,94293.39
2018-07-25T10:47:04.210Z,94304.72
2018-07-25T10:49:33.847Z,94297.55
2018-07-25T10:52:02.906Z,94297.83
2018-07-25T10:54:32.360Z,94295.45
2018-07-25T10:57:01.337Z,94303.41
2018-07-25T10:59:30.612Z,94287.27
2018-07-25T11:01:59.740Z,94291.89
2018-07-25T11:04:28.924Z,94291.58
2018-07-25T11:06:58.142Z,94291.44
2018-07-25T11:09:27.181Z,94288.16
2018-07-25T11:11:56.333Z,94292.64
2018-07-25T11:14:25.719Z,94293.84
2018-07-25T11:16:55.945Z,94292.30
2018-07-25T11:19:25.357Z,94296.62
2018-07-25T11:21:54.272Z,94300.63
2018-07-25T11:24:23.212Z,94300.23
2018-07-25T11:26:52.124Z,94293.23
2018-07-25T11:29:21.326Z,94291.71
2018-07-25T11:31:51.007Z,94292.69
2018-07-25T11:34:19.947Z,94300.22
2018-07-25T11:36:48.895Z,94305.62
2018-07-25T11:39:18.105Z,94309.72
2018-07-25T11:41:47.023Z,94309.53
2018-07-25T11:44:16.436Z,94302.53
2018-07-25T11:46:46.126Z,94297.00
2018-07-25T11:49:15.207Z,94300.34
2018-07-25T11:51:44.477Z,94291.19
2018-07-25T11:54:13.425Z,94287.94
2018-07-25T11:56:42.330Z,94282.44
2018-07-25T11:59:11.543Z,94278.69
2018-07-25T12:01:40.708Z,94278.38
2018-07-25T12:04:09.715Z,94278.78
2018-07-25T12:06:39.343Z,94273.09
2018-07-25T12:09:09.938Z,94278.23
2018-07-25T12:11:46.550Z,94269.97
2018-07-25T12:14:17.046Z,94273.12
2018-07-25T12:16:47.614Z,94272.52
2018-07-25T12:19:17.308Z,94274.66
2018-07-25T12:21:46.979Z,94268.55
2018-07-25T12:24:16.172Z,94269.33
2018-07-25T12:26:45.237Z,94273.76
2018-07-25T12:29:14.302Z,94267.88
2018-07-25T12:31:43.615Z,94261.83
2018-07-25T12:34:12.338Z,94260.95
2018-07-25T12:36:41.402Z,94266.05
2018-07-25T12:39:11.270Z,94266.04
2018-07-25T12:41:40.464Z,94270.45
2018-07-25T12:44:10.301Z,94265.48
2018-07-25T12:46:39.312Z,94269.47
2018-07-25T12:49:08.774Z,94265.45
2018-07-25T12:51:37.683Z,94265.23
2018-07-25T12:54:06.990Z,94261.75
2018-07-25T12:56:36.006Z,94264.48
2018-07-25T12:59:05.107Z,94268.70
2018-07-25T13:01:34.391Z,94264.78
2018-07-25T13:04:03.593Z,94262.12
2018-07-25T13:06:32.596Z,94253.00
2018-07-25T13:09:01.981Z,94248.87
2018-07-25T13:11:31.489Z,94249.28
2018-07-25T13:14:01.124Z,94245.83
2018-07-25T13:16:30.305Z,94242.93
2018-07-25T13:18:59.218Z,94244.88
2018-07-25T13:21:28.186Z,94246.70
2018-07-25T13:23:57.480Z,94249.91
2018-07-25T13:26:26.348Z,94247.59
2018-07-25T13:28:55.936Z,94242.87
2018-07-25T13:31:25.474Z,94243.97
2018-07-25T13:33:54.406Z,94241.84
2018-07-25T13:36:23.571Z,94243.45
2018-07-25T13:38:52.902Z,94246.34
2018-07-25T13:41:22.094Z,94246.20
2018-07-25T13:43:51.197Z,94246.34
2018-07-25T13:46:21.218Z,94249.35
2018-07-25T13:48:50.024Z,94253.00
2018-07-25T13:51:19.004Z,94240.59
2018-07-25T13:53:48.662Z,94236.23
2018-07-25T13:56:17.930Z,94244.45
2018-07-25T13:58:47.008Z,94238.82
2018-07-25T14:01:16.446Z,94233.42
2018-07-25T14:03:45.456Z,94228.34
2018-07-25T14:06:14.709Z,94222.97
2018-07-25T14:08:43.859Z,94227.97
2018-07-25T14:11:13.522Z,94225.64
2018-07-25T14:13:42.634Z,94227.20
2018-07-25T14:16:12.068Z,94226.66
2018-07-25T14:18:41.307Z,94227.84
2018-07-25T14:21:10.967Z,94220.45
2018-07-25T14:23:40.164Z,94221.85
2018-07-25T14:26:09.402Z,94225.41
2018-07-25T14:28:38.339Z,94223.52
2018-07-25T14:31:07.659Z,94230.45
2018-07-25T14:33:36.730Z,94228.64
2018-07-25T14:36:05.907Z,94230.34
2018-07-25T14:38:35.425Z,94219.52
2018-07-25T14:41:04.526Z,94224.21
2018-07-25T14:43:33.631Z,94231.50
2018-07-25T14:46:02.569Z,94237.59
2018-07-25T14:48:31.409Z,94243.12
2018-07-25T14:51:00.842Z,94243.12
2018-07-25T14:53:30.414Z,94245.16
2018-07-25T14:55:59.453Z,94248.94
2018-07-25T14:58:28.529Z,94248.19
2018-07-25T15:00:58.052Z,94247.59
2018-07-25T15:03:27.437Z,94248.83
2018-07-25T15:05:56.419Z,94250.26
2018-07-25T15:08:25.936Z,94248.98
2018-07-25T15:10:55.017Z,94247.34
2018-07-25T15:13:24.185Z,94256.73
2018-07-25T15:15:53.642Z,94246.89
2018-07-25T15:18:22.551Z,94247.86
2018-07-25T15:20:51.592Z,94248.23
2018-07-25T15:23:31.993Z,94248.00
2018-07-25T15:26:01.296Z,94252.84
2018-07-25T15:28:31.328Z,94252.02
2018-07-25T15:31:00.810Z,94250.80
2018-07-25T15:33:30.515Z,94244.47
2018-07-25T15:35:59.470Z,94248.55
2018-07-25T15:38:28.627Z,94245.55
2018-07-25T15:40:57.801Z,94252.00
2018-07-25T15:43:26.683Z,94245.61
2018-07-25T15:45:56.256Z,94250.48
2018-07-25T15:48:25.310Z,94261.61
2018-07-25T15:50:54.461Z,94259.09
2018-07-25T15:53:23.835Z,94260.36
2018-07-25T15:55:53.312Z,94254.73
2018-07-25T15:58:22.309Z,94250.58
2018-07-25T16:00:52.135Z,94252.05
2018-07-25T16:03:21.413Z,94251.36
2018-07-25T16:05:50.214Z,94254.78
2018-07-25T16:08:19.420Z,94250.01
2018-07-25T16:10:48.513Z,94246.45
2018-07-25T16:13:17.922Z,94246.27
2018-07-25T16:15:47.361Z,94249.50
2018-07-25T16:18:16.407Z,94252.99
2018-07-25T16:20:45.493Z,94252.73
2018-07-25T16:23:14.811Z,94260.44
2018-07-25T16:25:43.686Z,94268.80
2018-07-25T16:28:12.969Z,94274.73
2018-07-25T16:30:42.288Z,94281.67
2018-07-25T16:33:11.221Z,94280.52
2018-07-25T16:35:40.369Z,94291.64
2018-07-25T16:38:10.433Z,94295.05
2018-07-25T16:40:39.298Z,94287.50
2018-07-25T16:43:08.341Z,94283.98
2018-07-25T16:45:37.734Z,94283.59
2018-07-25T16:48:06.902Z,94287.50
2018-07-25T16:50:36.007Z,94293.23
2018-07-25T16:53:05.559Z,94299.75
2018-07-25T16:55:34.295Z,94303.02
2018-07-25T16:58:03.359Z,94307.90
2018-07-25T17:00:33.112Z,94311.69
2018-07-25T17:03:03.551Z,94313.53
2018-07-25T17:05:33.623Z,94316.98
2018-07-25T17:08:02.953Z,94321.74
2018-07-25T17:10:32.562Z,94322.48
2018-07-25T17:13:02.679Z,94327.33
2018-07-25T17:15:35.316Z,94333.83
2018-07-25T17:18:04.865Z,94334.83
2018-07-25T17:20:33.791Z,94329.13
2018-07-25T17:23:03.667Z,94333.66
2018-07-25T17:25:32.915Z,94340.02
2018-07-25T17:28:04.148Z,94342.32
2018-07-25T17:33:33.231Z,94355.40
2018-07-25T17:36:03.464Z,94355.81
2018-07-25T17:38:34.675Z,94357.11
2018-07-25T17:41:04.809Z,94364.84
2018-07-25T17:43:36.677Z,94374.56
2018-07-25T17:46:05.611Z,94378.12
2018-07-25T17:48:34.627Z,94384.98
2018-07-25T17:51:03.923Z,94386.63
2018-07-25T17:53:33.302Z,94394.25
2018-07-25T17:56:02.114Z,94372.23
2018-07-25T17:58:30.957Z,94384.98
2018-07-25T18:00:59.882Z,94392.37
2018-07-25T18:03:28.739Z,94394.96
2018-07-25T18:05:57.708Z,94400.55
2018-07-25T18:08:26.668Z,94400.89
2018-07-25T18:10:55.712Z,94395.73
2018-07-25T18:13:30.582Z,94401.31
2018-07-25T18:15:59.392Z,94394.90
2018-07-25T18:20:57.103Z,94399.26
2018-07-25T18:23:25.962Z,94402.69
2018-07-25T18:25:55.363Z,94400.88
2018-07-25T18:28:24.659Z,94397.34
2018-07-25T18:30:54.391Z,94399.72
2018-07-25T18:33:23.372Z,94395.95
2018-07-25T18:35:52.515Z,94396.70
2018-07-25T18:38:21.447Z,94395.12
2018-07-25T18:40:51.691Z,94405.38
2018-07-25T18:43:20.916Z,94408.95
2018-07-25T18:45:49.602Z,94417.28
2018-07-25T18:48:19.666Z,94428.44
2018-07-25T18:50:52.271Z,94428.77
2018-07-25T18:56:01.671Z,94431.30
2018-07-25T18:58:31.050Z,94425.73
2018-07-25T19:00:59.923Z,94428.63
2018-07-25T19:03:29.703Z,94431.31
2018-07-25T19:05:59.155Z,94429.69
2018-07-25T19:08:28.116Z,94431.53
2018-07-25T19:10:57.028Z,94434.44
2018-07-25T19:13:31.571Z,94444.61
2018-07-25T19:16:00.546Z,94447.20
2018-07-25T19:18:29.828Z,94453.39
2018-07-25T19:20:59.367Z,94446.12
2018-07-25T19:23:28.352Z,94452.48
2018-07-25T19:25:57.632Z,94449.47
2018-07-25T19:28:26.549Z,94436.51
2018-07-25T19:30:55.437Z,94442.64
2018-07-25T19:33:24.322Z,94433.78
2018-07-25T19:35:54.164Z,94431.22
2018-07-25T19:38:22.926Z,94435.51
2018-07-25T19:40:52.726Z,94437.20
2018-07-25T19:43:21.954Z,94433.27
2018-07-25T19:45:51.151Z,94428.58
2018-07-25T19:48:21.423Z,94429.98
2018-07-25T19:50:50.261Z,94429.77
2018-07-25T19:53:19.357Z,94429.34
2018-07-25T19:55:48.485Z,94429.87
2018-07-25T19:58:17.324Z,94424.96
2018-07-25T20:00:46.160Z,94433.88
2018-07-25T20:03:16.378Z,94418.12
2018-07-25T20:05:45.206Z,94417.57
2018-07-25T20:08:14.031Z,94413.63
2018-07-25T20:10:43.203Z,94414.91
2018-07-25T20:13:12.199Z,94407.84
2018-07-25T20:15:47.111Z,94409.13
2018-07-25T20:18:15.862Z,94411.59
2018-07-25T20:20:44.839Z,94413.20
2018-07-25T20:23:14.023Z,94409.45
2018-07-25T20:25:43.042Z,94406.66
2018-07-25T20:28:12.690Z,94408.05
2018-07-25T20:30:41.852Z,94406.87
2018-07-25T20:33:10.845Z,94412.00
2018-07-25T20:35:39.836Z,94420.98
2018-07-25T20:38:08.847Z,94424.09
2018-07-25T20:40:37.828Z,94426.44
2018-07-25T20:43:08.874Z,94426.52
2018-07-25T20:45:38.684Z,94422.26
2018-07-25T20:48:08.606Z,94419.36
2018-07-25T20:50:38.536Z,94416.78
2018-07-25T20:53:09.750Z,94416.46
2018-07-25T20:55:39.274Z,94410.78
2018-07-25T20:58:11.874Z,94405.33
2018-07-25T21:00:42.236Z,94406.28
2018-07-25T21:03:13.243Z,94411.73
2018-07-25T21:05:44.436Z,94406.61
2018-07-25T21:08:13.355Z,94408.63
2018-07-25T21:10:42.481Z,94411.30
2018-07-25T21:13:11.266Z,94410.86
2018-07-25T21:15:40.035Z,94408.19
2018-07-25T21:18:09.387Z,94410.97
2018-07-25T21:20:38.448Z,94420.70
2018-07-25T21:23:07.245Z,94417.59
2018-07-25T21:25:36.324Z,94420.58
2018-07-25T21:28:05.198Z,94425.83
2018-07-25T21:30:34.638Z,94422.41
2018-07-25T21:33:03.799Z,94420.38
2018-07-25T21:35:32.533Z,94413.07
2018-07-25T21:38:01.632Z,94408.81
2018-07-25T21:40:30.573Z,94410.92
2018-07-25T21:42:59.492Z,94412.95
2018-07-25T21:45:28.474Z,94408.69
2018-07-25T21:47:58.075Z,94409.72
2018-07-25T21:50:27.283Z,94407.05
2018-07-25T21:52:56.451Z,94400.94
2018-07-25T21:55:26.126Z,94407.69
2018-07-25T21:57:55.218Z,94395.48
2018-07-25T22:00:24.179Z,94398.78
2018-07-25T22:02:53.354Z,94395.45
2018-07-25T22:05:23.286Z,94397.80
2018-07-25T22:07:52.335Z,94402.86
2018-07-25T22:10:21.502Z,94391.84
2018-07-25T22:12:51.104Z,94393.94
2018-07-25T22:15:20.126Z,94393.30
2018-07-25T22:17:50.363Z,94401.84
2018-07-25T22:20:19.439Z,94399.82
2018-07-25T22:22:48.311Z,94409.10
2018-07-25T22:25:17.650Z,94411.75
2018-07-25T22:27:46.778Z,94411.53
2018-07-25T22:30:15.918Z,94406.50
2018-07-25T22:32:44.868Z,94404.66
2018-07-25T22:35:13.825Z,94405.20
2018-07-25T22:37:42.727Z,94402.94
2018-07-25T22:40:11.638Z,94401.13
2018-07-25T22:42:40.497Z,94400.80
2018-07-25T22:45:09.762Z,94403.58
2018-07-25T22:47:38.843Z,94399.65
2018-07-25T22:50:07.588Z,94402.06
2018-07-25T22:52:36.275Z,94354.64
2018-07-25T22:55:05.903Z,94398.66
2018-07-25T22:57:34.855Z,94407.04
2018-07-25T23:00:05.139Z,94401.25
2018-07-25T23:02:35.028Z,94396.94
2018-07-25T23:05:04.203Z,94403.25
2018-07-25T23:07:33.315Z,94404.22
2018-07-25T23:10:02.826Z,94396.96
2018-07-25T23:12:31.701Z,94399.95
2018-07-25T23:15:00.720Z,94401.44
2018-07-25T23:17:30.035Z,94405.09
2018-07-25T23:19:58.994Z,94412.55
2018-07-25T23:22:27.732Z,94409.75
2018-07-25T23:24:56.912Z,94419.47
2018-07-25T23:27:26.049Z,94414.95
2018-07-25T23:29:54.871Z,94409.60
2018-07-25T23:32:24.312Z,94412.50
2018-07-25T23:34:53.711Z,94413.16
2018-07-25T23:37:22.638Z,94413.40
2018-07-25T23:39:51.738Z,94420.10
2018-07-25T23:42:20.747Z,94413.46
2018-07-25T23:44:49.854Z,94417.42
2018-07-25T23:47:18.639Z,94418.91
2018-07-25T23:49:47.543Z,94418.38
2018-07-25T23:52:16.410Z,94424.45
2018-07-25T23:54:45.501Z,94426.72
2018-07-25T23:57:15.666Z,94420.44
2018-07-25T23:59:44.848Z,94424.51
